EGAE/LDY METAR and TAF weather

Enter ICAO airport designator
Station Type Date Time Source
EGAE METAR 2020/01/24 15:50 UTC NOAA

EGAE 241550Z 23011KT 9999 FEW010 BKN015 10/08 Q1018


Station Type Date Time Source
EGAE Decoded METAR 2020/01/24 15:50 UTC NOAA

Eglinton / Londonderr, United Kingdom (EGAE) 55-03N 007-09W
Jan 24, 2020 - 10:50 AM EST / 2020.01.24 1550 UTC
Wind: from the SW (230 degrees) at 13 MPH (11 KT):0
Visibility: greater than 7 mile(s):0
Sky conditions: mostly cloudy
Temperature: 50 F (10 C)
Dew Point: 46 F (8 C)
Relative Humidity: 87%
Pressure (altimeter): 30.06 in. Hg (1018 hPa)
ob: EGAE 241550Z 23011KT 9999 FEW010 BKN015 10/08 Q1018
cycle: 16

Station Type Date Time Source
EGAE TAF UTC NOAA

Error!

Example: see airport list